Bijie, China
Current Conditions -  °F | °C
As of 9:00 PM on Saturday 25 Oct 2014 (Local Time) from ZUGY Reporting Station
Scattered Clouds Scattered Clouds  
Wind Chill: 63°   Ceiling: Unl
Heat Index: 63°   Visibility: 6mi
Dew Point: 59°   Wind: 4mph
Humidity: 88%   Direction: 160°SSE
Pressure: 30.12"   Gusts: NA
Location:  27.31°N, 105.28°E
Report Text: ZUGY 251300Z 16002MPS 9999 SCT026 17/15 Q1020 NOSIG
Loading
Personal Weather Stations






























Interactive Weather Map
Tropical Storm Tracking
New forecast layout! Learn more

10-Day Weather Forecast

Advertisements
Track Severe Weather on mobile